Time;durP1;ratioP1;P1;durP2;ratioP2;P2;SDS_P1;SDS_P2;PMS_P1;PMS_P2;Temp;Humidity;BMP_temperature;BMP_pressure;BME280_temperature;BME280_humidity;BME280_pressure;Samples;Min_cycle;Max_cycle;Signal;HPM_P1;HPM_P2
2022/04/21 00:00:27;;;;;;;11.23;7.38;;;;;;;10.57;70.12;101581.19;5080301;28;20048;-83
2022/04/21 00:02:53;;;;;;;8.57;6.97;;;;;;;10.53;70.15;101580.41;5063764;28;20092;-83
2022/04/21 00:05:19;;;;;;;9.70;6.90;;;;;;;10.56;70.10;101577.69;5046474;28;20450;-83
2022/04/21 00:07:46;;;;;;;7.82;7.00;;;;;;;10.53;70.21;101572.56;5063038;28;20550;-83
2022/04/21 00:10:12;;;;;;;7.63;6.93;;;;;;;10.53;70.24;101569.06;5063951;28;20033;-83
2022/04/21 00:12:37;;;;;;;8.43;7.30;;;;;;;10.52;70.13;101568.19;5026655;28;20106;-83
2022/04/21 00:15:04;;;;;;;11.63;7.25;;;;;;;10.54;70.21;101571.63;5044350;28;20255;-83
2022/04/21 00:17:30;;;;;;;11.52;6.95;;;;;;;10.52;70.29;101562.97;5062663;28;20048;-83
2022/04/21 00:19:55;;;;;;;8.07;7.25;;;;;;;10.46;70.60;101564.91;5046668;28;20020;-83
2022/04/21 00:25:05;;;;;;;7.68;6.90;;;;;;;10.43;70.65;101558.00;5080885;28;20035;-83
2022/04/21 00:27:36;;;;;;;11.68;7.35;;;;;;;10.38;70.58;101558.13;5062415;28;20024;-83
2022/04/21 00:30:02;;;;;;;8.57;7.60;;;;;;;10.36;70.70;101556.44;5081416;28;20035;-83
2022/04/21 00:32:27;;;;;;;13.82;7.75;;;;;;;10.34;70.99;101558.25;5080201;28;20032;-83
2022/04/21 00:34:53;;;;;;;8.55;7.00;;;;;;;10.33;70.94;101560.03;5046518;28;20041;-83
2022/04/21 00:37:18;;;;;;;7.95;7.15;;;;;;;10.33;70.96;101564.38;5079879;28;20060;-83
2022/04/21 00:39:44;;;;;;;9.63;7.38;;;;;;;10.30;70.95;101561.84;5046261;28;20036;-83
2022/04/21 00:42:09;;;;;;;8.85;7.93;;;;;;;10.28;71.44;101567.13;5062247;28;20099;-83
2022/04/21 00:44:34;;;;;;;7.82;7.15;;;;;;;10.28;71.01;101561.03;5079986;28;20042;-83
2022/04/21 00:47:05;;;;;;;7.57;6.80;;;;;;;10.32;70.73;101557.44;5080590;28;20249;-83
2022/04/21 00:49:31;;;;;;;8.63;7.32;;;;;;;10.30;70.87;101561.84;5080270;28;20031;-83
2022/04/21 00:51:58;;;;;;;9.73;7.47;;;;;;;10.32;70.87;101562.69;5080009;28;20386;-83
2022/04/21 00:54:24;;;;;;;10.00;6.88;;;;;;;10.36;70.50;101557.31;5080011;28;20029;-83
2022/04/21 00:56:50;;;;;;;9.48;7.57;;;;;;;10.35;70.47;101559.97;5062231;28;20028;-83
2022/04/21 00:59:16;;;;;;;9.65;7.05;;;;;;;10.40;70.14;101552.84;5080078;28;20032;-83
2022/04/21 01:04:59;;;;;;;10.23;7.00;;;;;;;10.42;70.30;101558.88;5077121;28;20055;-83
2022/04/21 01:07:25;;;;;;;9.20;7.18;;;;;;;10.41;70.03;101553.72;5061975;28;20038;-83
2022/04/21 01:09:54;;;;;;;9.68;7.13;;;;;;;10.38;70.33;101552.88;5062275;28;20414;-83
2022/04/21 01:12:19;;;;;;;9.40;7.18;;;;;;;10.33;70.42;101551.28;5079753;28;20032;-83
2022/04/21 01:14:45;;;;;;;8.52;7.40;;;;;;;10.31;70.30;101551.34;5079671;28;20045;-83
2022/04/21 01:17:11;;;;;;;7.70;6.80;;;;;;;10.27;70.19;101557.53;5061620;28;20042;-83
2022/04/21 01:19:37;;;;;;;11.65;7.25;;;;;;;10.29;70.05;101547.03;5061645;28;20040;-83
2022/04/21 01:22:03;;;;;;;9.00;7.70;;;;;;;10.23;70.35;101557.69;5079822;28;20258;-83
2022/04/21 01:24:28;;;;;;;8.13;7.32;;;;;;;10.13;70.47;101551.81;5060978;28;20040;-83
2022/04/21 01:26:55;;;;;;;10.35;7.53;;;;;;;10.06;70.70;101551.16;5062556;28;20114;-84
2022/04/21 01:29:20;;;;;;;8.52;7.60;;;;;;;9.95;71.19;101550.56;5079714;28;20025;-83
2022/04/21 01:31:46;;;;;;;11.13;6.90;;;;;;;9.98;71.00;101545.25;5041807;28;20105;-83
2022/04/21 01:34:11;;;;;;;8.02;7.20;;;;;;;9.95;71.21;101542.69;5060889;28;20053;-83
2022/04/21 01:41:08;;;;;;;9.15;6.75;;;;;;;9.97;70.79;101539.16;5045232;28;20303;-83
2022/04/21 01:42:07;;;;;;;9.32;7.30;;;;;;;9.88;71.05;101541.19;5064398;28;20036;-83
2022/04/21 01:44:32;;;;;;;8.52;6.50;;;;;;;9.91;71.15;101539.31;5061404;28;20236;-83
2022/04/21 01:46:58;;;;;;;7.97;6.88;;;;;;;9.92;70.94;101538.41;5061459;28;20037;-83
2022/04/21 01:49:23;;;;;;;7.30;6.60;;;;;;;9.96;70.81;101539.19;5060810;28;20489;-83
2022/04/21 01:51:49;;;;;;;7.88;7.10;;;;;;;9.99;70.70;101539.13;5079527;28;20044;-83
2022/04/21 01:54:14;;;;;;;8.38;7.45;;;;;;;9.91;70.78;101539.31;5060330;28;20040;-83
2022/04/21 01:56:39;;;;;;;7.20;6.53;;;;;;;9.92;70.94;101540.19;5079162;28;20103;-83
2022/04/21 01:59:05;;;;;;;7.50;6.80;;;;;;;9.92;71.02;101530.56;5079448;28;20028;-83
2022/04/21 02:01:31;;;;;;;8.68;6.72;;;;;;;9.95;70.85;101529.63;5044019;28;20039;-83
2022/04/21 02:03:57;;;;;;;11.35;7.32;;;;;;;9.90;71.08;101542.84;5079432;28;20043;-83
2022/04/21 02:06:22;;;;;;;10.57;6.90;;;;;;;9.87;70.92;101542.91;5078350;28;20082;-83
2022/04/21 02:08:47;;;;;;;7.38;6.70;;;;;;;9.82;71.29;101530.84;5079123;28;20043;-83
2022/04/21 02:11:13;;;;;;;7.95;7.15;;;;;;;9.78;71.02;101530.94;5060750;28;20547;-83
2022/04/21 02:13:38;;;;;;;8.40;7.10;;;;;;;9.76;71.06;101532.72;5078472;28;20096;-83
2022/04/21 02:16:04;;;;;;;8.75;6.97;;;;;;;9.74;70.73;101529.28;5061364;28;20036;-83
2022/04/21 02:18:29;;;;;;;12.50;7.10;;;;;;;9.70;70.95;101532.06;5078389;28;20048;-83
2022/04/21 02:20:55;;;;;;;7.53;6.70;;;;;;;9.68;71.08;101526.84;5061322;28;20036;-83
2022/04/21 02:23:20;;;;;;;10.35;7.05;;;;;;;9.67;71.33;101532.13;5060706;28;20044;-83
2022/04/21 02:25:46;;;;;;;6.90;6.28;;;;;;;9.71;71.04;101524.13;5061530;28;20302;-83
2022/04/21 02:28:11;;;;;;;7.63;6.15;;;;;;;9.75;70.89;101525.78;5078352;28;20063;-83
2022/04/21 02:30:36;;;;;;;7.88;6.05;;;;;;;9.82;70.66;101528.25;5060532;28;20044;-83
2022/04/21 02:33:02;;;;;;;9.98;7.00;;;;;;;9.77;70.74;101529.22;5078252;28;20243;-83
2022/04/21 02:35:27;;;;;;;7.22;6.55;;;;;;;9.75;70.48;101531.03;5077788;28;20558;-83
2022/04/21 02:37:53;;;;;;;8.70;7.13;;;;;;;9.73;70.55;101529.34;5078424;28;20075;-83
2022/04/21 02:40:18;;;;;;;9.48;6.78;;;;;;;9.67;71.01;101529.50;5077487;28;20040;-83
2022/04/21 02:42:44;;;;;;;7.38;6.60;;;;;;;9.68;70.81;101528.59;5040079;28;20044;-83
2022/04/21 02:45:11;;;;;;;7.53;6.72;;;;;;;9.64;70.90;101525.22;5058896;28;20032;-83
2022/04/21 02:47:38;;;;;;;9.50;7.07;;;;;;;9.64;70.93;101517.38;5058134;28;20044;-83
2022/04/21 02:50:07;;;;;;;8.02;7.22;;;;;;;9.56;71.31;101514.09;5051229;28;20490;-83
2022/04/21 02:52:35;;;;;;;6.80;6.05;;;;;;;9.60;71.01;101520.94;5077410;28;20328;-83
2022/04/21 02:57:45;;;;;;;7.38;6.35;;;;;;;9.55;70.91;101522.81;5062585;28;20287;-83
2022/04/21 03:00:11;;;;;;;8.38;6.57;;;;;;;9.57;70.97;101521.03;5078382;28;20052;-83
2022/04/21 03:02:37;;;;;;;7.47;6.75;;;;;;;9.50;71.28;101522.94;5060225;28;20314;-83
2022/04/21 03:05:02;;;;;;;8.80;6.97;;;;;;;9.47;71.45;101512.56;5077701;28;20028;-83
2022/04/21 03:07:28;;;;;;;7.55;6.55;;;;;;;9.47;71.25;101524.78;5058942;28;20115;-83
2022/04/21 03:09:53;;;;;;;7.13;6.20;;;;;;;9.50;71.07;101522.09;5078542;28;20032;-83
2022/04/21 03:12:22;;;;;;;7.18;6.47;;;;;;;9.47;71.29;101527.41;5059491;28;20232;-83
2022/04/21 03:14:49;;;;;;;7.40;6.65;;;;;;;9.46;71.20;101518.69;5060205;28;20066;-83
2022/04/21 03:17:14;;;;;;;7.32;6.28;;;;;;;9.52;70.76;101517.69;5059783;28;20048;-83
2022/04/21 03:19:40;;;;;;;7.10;6.07;;;;;;;9.52;70.84;101515.06;5078303;28;20091;-83
2022/04/21 03:24:53;;;;;;;8.77;6.15;;;;;;;9.48;70.92;101509.06;5078202;28;20039;-83
2022/04/21 03:27:18;;;;;;;6.85;5.95;;;;;;;9.53;70.62;101508.94;5077272;28;20083;-83
2022/04/21 03:29:44;;;;;;;8.75;5.75;;;;;;;9.56;70.29;101514.09;5043776;28;20375;-83
2022/04/21 03:32:13;;;;;;;6.63;5.78;;;;;;;9.54;70.53;101508.03;5077565;28;20036;-83
2022/04/21 03:34:42;;;;;;;6.03;5.45;;;;;;;9.57;70.54;101510.59;5059739;28;20349;-83
2022/04/21 03:37:10;;;;;;;6.40;5.80;;;;;;;9.57;70.18;101510.59;5077124;28;20123;-83
2022/04/21 03:39:36;;;;;;;8.57;6.57;;;;;;;9.54;70.10;101518.50;5059955;28;20398;-83
2022/04/21 03:42:07;;;;;;;6.97;6.28;;;;;;;9.47;70.41;101515.16;5078020;28;20283;-83
2022/04/21 03:44:33;;;;;;;8.05;6.95;;;;;;;9.39;70.50;101515.38;5077428;28;20024;-83
2022/04/21 03:46:59;;;;;;;9.13;7.05;;;;;;;9.35;70.98;101515.47;5077572;28;20044;-83
2022/04/21 03:49:26;;;;;;;7.78;6.40;;;;;;;9.23;71.50;101517.50;5039563;28;20063;-83
2022/04/21 03:51:51;;;;;;;8.93;7.18;;;;;;;9.12;71.68;101524.75;5058136;28;20107;-83
2022/04/21 03:54:17;;;;;;;8.30;7.13;;;;;;;9.07;71.71;101517.91;5076739;28;20028;-83
2022/04/21 03:56:42;;;;;;;8.75;6.75;;;;;;;9.06;71.79;101517.06;5060194;28;20050;-83
2022/04/21 03:59:07;;;;;;;8.98;6.78;;;;;;;9.01;72.05;101519.75;5059001;28;20406;-83
2022/04/21 04:01:33;;;;;;;7.10;6.40;;;;;;;9.02;72.01;101526.72;5059502;28;20260;-83
2022/04/21 04:03:58;;;;;;;7.63;6.80;;;;;;;8.94;72.18;101515.56;5077463;28;20055;-83
2022/04/21 04:11:51;;;;;;;7.05;6.35;;;;;;;8.86;72.60;101520.13;5062447;28;20358;-83
2022/04/21 04:14:17;;;;;;;7.85;6.72;;;;;;;8.82;72.87;101515.84;5042015;28;20060;-83
2022/04/21 04:16:44;;;;;;;7.13;6.43;;;;;;;8.73;73.24;101516.06;5060204;28;20047;-83
2022/04/21 04:19:10;;;;;;;9.18;6.88;;;;;;;8.74;73.31;101523.84;5080615;28;20339;-83
2022/04/21 04:21:37;;;;;;;10.48;6.30;;;;;;;8.79;73.16;101529.84;5063005;28;20115;-83
2022/04/21 04:24:03;;;;;;;8.15;6.13;;;;;;;8.80;73.01;101518.53;5070901;28;20045;-83
2022/04/21 04:26:29;;;;;;;8.77;6.28;;;;;;;8.84;72.93;101524.50;5059165;28;20036;-83
2022/04/21 04:28:54;;;;;;;12.63;7.57;;;;;;;8.76;73.07;101535.13;5074613;28;20073;-83
2022/04/21 04:31:19;;;;;;;7.70;6.93;;;;;;;8.77;73.13;101530.78;5079480;28;20247;-83
2022/04/21 04:33:45;;;;;;;12.15;6.80;;;;;;;8.77;73.22;101522.94;5061602;28;20040;-83
2022/04/21 04:36:11;;;;;;;7.28;6.55;;;;;;;8.78;73.22;101532.50;5079128;28;20048;-83
2022/04/21 04:38:40;;;;;;;8.23;6.90;;;;;;;8.80;73.02;101530.69;5060732;28;20036;-83
2022/04/21 04:43:50;;;;;;;9.18;7.38;;;;;;;8.69;73.60;101527.47;5079404;28;20089;-83
2022/04/21 04:48:59;;;;;;;8.02;6.85;;;;;;;8.73;73.41;101529.09;5079488;28;20051;-83
2022/04/21 04:51:27;;;;;;;8.38;6.78;;;;;;;8.74;73.33;101525.63;5078887;28;20040;-83
2022/04/21 04:53:55;;;;;;;7.60;6.40;;;;;;;8.72;73.25;101523.03;5061172;28;20040;-83
2022/04/21 04:56:32;;;;;;;10.05;6.95;;;;;;;8.69;73.61;101525.72;5060833;28;20032;-83
2022/04/21 04:58:57;;;;;;;8.25;6.65;;;;;;;8.72;73.30;101523.03;5078848;28;20379;-83
2022/04/21 05:01:33;;;;;;;8.85;6.93;;;;;;;8.76;73.42;101521.22;5078645;28;20086;-83
2022/04/21 05:04:10;;;;;;;11.38;7.22;;;;;;;8.76;73.43;101532.50;5060950;28;20040;-83
2022/04/21 05:06:55;;;;;;;6.90;6.18;;;;;;;8.72;73.39;101527.41;5044782;28;20036;-83
2022/04/21 05:09:22;;;;;;;7.32;6.57;;;;;;;8.76;73.36;101535.13;5078440;28;20050;-83
2022/04/21 05:11:58;;;;;;;9.00;6.57;;;;;;;8.76;73.27;101532.50;5078572;28;20236;-83
2022/04/21 05:14:25;;;;;;;7.40;6.35;;;;;;;8.82;73.11;101529.78;5059784;28;20028;-83
2022/04/21 05:16:51;;;;;;;6.75;6.07;;;;;;;8.84;73.02;101532.34;5078417;28;20260;-83
2022/04/21 05:19:19;;;;;;;11.63;6.75;;;;;;;8.81;73.40;101530.66;5059985;28;20025;-83
2022/04/21 05:21:46;;;;;;;7.53;6.72;;;;;;;8.87;73.19;101529.66;5056142;28;20078;-83
2022/04/21 05:24:13;;;;;;;13.05;7.68;;;;;;;8.91;73.09;101528.69;5042988;28;20111;-83
2022/04/21 05:26:40;;;;;;;7.10;6.40;;;;;;;8.94;73.10;101533.88;5060361;28;20020;-83
2022/04/21 05:31:54;;;;;;;10.07;5.80;;;;;;;9.02;73.00;101531.94;5078401;28;20039;-83
2022/04/21 05:34:20;;;;;;;9.40;7.57;;;;;;;9.00;73.04;101538.97;5073065;28;20040;-83
2022/04/21 05:36:46;;;;;;;7.88;7.13;;;;;;;9.04;73.31;101542.38;5069090;28;20426;-83
2022/04/21 05:39:11;;;;;;;8.55;6.88;;;;;;;9.07;73.23;101541.44;5052211;28;20024;-83
2022/04/21 05:41:37;;;;;;;12.27;6.50;;;;;;;9.09;72.91;101537.88;5075204;28;20040;-83
2022/04/21 05:44:04;;;;;;;9.90;7.03;;;;;;;9.09;73.05;101535.25;5077826;28;20037;-82
2022/04/21 05:46:29;;;;;;;8.73;6.90;;;;;;;9.05;73.73;101533.63;5078416;28;20044;-83
2022/04/21 05:48:55;;;;;;;11.90;6.00;;;;;;;9.04;73.58;101531.91;5076482;28;20032;-83
2022/04/21 05:51:21;;;;;;;8.38;6.75;;;;;;;9.03;74.02;101535.41;5061253;28;20059;-83
2022/04/21 05:53:50;;;;;;;10.35;6.85;;;;;;;8.99;73.84;101532.00;5061226;28;20136;-83
2022/04/21 05:56:16;;;;;;;11.95;6.85;;;;;;;8.97;73.92;101525.97;5060754;28;20058;-83
2022/04/21 05:58:41;;;;;;;8.30;7.05;;;;;;;8.97;74.17;101533.81;5078565;28;20052;-83
2022/04/21 06:01:10;;;;;;;11.55;7.70;;;;;;;8.97;73.94;101535.56;5044191;28;20044;-84
2022/04/21 06:03:37;;;;;;;10.40;7.20;;;;;;;8.94;74.10;101525.19;5066374;28;20325;-83
2022/04/21 06:06:04;;;;;;;10.90;6.72;;;;;;;8.96;74.28;101529.47;5057049;28;20348;-83
2022/04/21 06:08:30;;;;;;;10.18;7.78;;;;;;;8.99;74.63;101537.22;5072111;28;20221;-83
2022/04/21 06:10:56;;;;;;;12.13;6.75;;;;;;;9.00;74.24;101540.69;5033604;28;20111;-83
2022/04/21 06:13:22;;;;;;;7.32;6.63;;;;;;;9.02;74.03;101545.00;5068708;28;20040;-83
2022/04/21 06:15:48;;;;;;;11.85;6.45;;;;;;;9.06;74.15;101542.31;5067669;28;20108;-83
2022/04/21 06:18:13;;;;;;;12.15;6.68;;;;;;;9.10;73.83;101539.59;5065254;28;20036;-83
2022/04/21 06:20:40;;;;;;;8.40;6.38;;;;;;;9.16;73.53;101543.81;5075341;28;20036;-83
2022/04/21 06:23:06;;;;;;;8.82;6.38;;;;;;;9.23;73.34;101540.16;5074254;28;20028;-83
2022/04/21 06:25:31;;;;;;;8.15;6.30;;;;;;;9.27;73.31;101536.56;5032314;28;20054;-83
2022/04/21 06:27:56;;;;;;;7.32;6.65;;;;;;;9.28;72.92;101530.47;5073108;28;20033;-83
2022/04/21 06:30:23;;;;;;;7.65;6.65;;;;;;;9.35;72.85;101532.03;5052594;28;20120;-83
2022/04/21 06:32:49;;;;;;;11.38;6.60;;;;;;;9.39;72.79;101527.59;5072756;28;20041;-83
2022/04/21 06:35:15;;;;;;;6.40;5.82;;;;;;;9.44;72.02;101523.13;5057627;28;20249;-83
2022/04/21 06:37:42;;;;;;;10.27;7.03;;;;;;;9.47;71.61;101532.63;5063236;28;20086;-83
2022/04/21 06:40:08;;;;;;;7.75;6.13;;;;;;;9.52;71.69;101529.00;5021893;28;20217;-83
2022/04/21 06:42:35;;;;;;;8.65;6.43;;;;;;;9.53;71.43;101532.47;5077264;28;20064;-83
2022/04/21 06:48:04;;;;;;;10.82;5.53;;;;;;;9.57;70.67;101526.28;5075272;28;20206;-83
2022/04/21 06:50:34;;;;;;;6.05;5.55;;;;;;;9.58;70.03;101525.34;5030694;28;20047;-83
2022/04/21 06:53:04;;;;;;;8.77;6.60;;;;;;;9.59;70.12;101532.31;5077448;28;20036;-83
2022/04/21 06:55:30;;;;;;;6.68;6.05;;;;;;;9.61;69.74;101527.91;5077484;28;20036;-83
2022/04/21 06:57:56;;;;;;;6.90;5.70;;;;;;;9.63;69.50;101533.09;5072275;28;20036;-83
2022/04/21 07:00:23;;;;;;;6.53;5.72;;;;;;;9.65;69.11;101537.38;5061613;28;20232;-83
2022/04/21 07:02:51;;;;;;;8.75;6.18;;;;;;;9.67;69.09;101527.75;5075073;28;20032;-83
2022/04/21 07:05:17;;;;;;;14.50;6.18;;;;;;;9.71;69.39;101531.13;5051260;28;20034;-83
2022/04/21 07:07:43;;;;;;;6.60;5.40;;;;;;;9.76;69.38;101529.25;5074109;28;20248;-84
2022/04/21 07:10:10;;;;;;;7.70;6.00;;;;;;;9.76;69.04;101522.25;5077598;28;20040;-83
2022/04/21 07:12:36;;;;;;;6.55;5.95;;;;;;;9.81;69.56;101530.00;5076203;28;20040;-82
2022/04/21 07:15:04;;;;;;;13.75;6.15;;;;;;;9.85;69.04;101525.56;5076815;28;20035;-83
2022/04/21 07:17:30;;;;;;;6.90;6.18;;;;;;;9.88;69.25;101525.47;5075967;28;20085;-83
2022/04/21 07:19:55;;;;;;;9.63;5.82;;;;;;;9.91;69.22;101526.22;5075452;28;20332;-82
2022/04/21 07:22:22;;;;;;;9.45;6.30;;;;;;;9.97;68.78;101530.47;5075058;28;20036;-83
2022/04/21 07:24:47;;;;;;;9.13;5.80;;;;;;;10.00;68.54;101530.34;5075339;28;20395;-83
2022/04/21 07:27:14;;;;;;;11.02;5.75;;;;;;;10.02;68.77;101528.56;5047456;28;20087;-82
2022/04/21 07:29:39;;;;;;;6.68;5.68;;;;;;;10.02;68.68;101519.84;5073598;28;20040;-82
2022/04/21 07:32:05;;;;;;;7.13;6.40;;;;;;;10.04;69.07;101525.91;5074849;28;20089;-83
2022/04/21 07:34:30;;;;;;;8.75;6.07;;;;;;;10.03;68.26;101527.66;5056064;28;20303;-83
2022/04/21 07:36:56;;;;;;;6.60;6.00;;;;;;;10.06;68.36;101524.97;5039729;28;20064;-83
2022/04/21 07:39:21;;;;;;;6.82;5.50;;;;;;;10.08;67.95;101532.78;5071903;28;20426;-83
2022/04/21 07:41:47;;;;;;;6.53;5.97;;;;;;;10.13;68.43;101526.53;5054960;28;20045;-82
2022/04/21 07:44:12;;;;;;;7.65;5.75;;;;;;;10.18;68.31;101527.22;5066258;28;20309;-82
2022/04/21 07:46:38;;;;;;;9.50;6.15;;;;;;;10.23;67.98;101526.25;5056975;28;20275;-83
2022/04/21 07:51:47;;;;;;;7.18;5.20;;;;;;;10.36;68.01;101522.41;5069132;28;20051;-82
2022/04/21 07:54:13;;;;;;;7.30;5.63;;;;;;;10.41;67.97;101511.81;5050903;28;20104;-82
2022/04/21 07:56:38;;;;;;;6.22;5.20;;;;;;;10.46;67.52;101518.63;5059417;28;20344;-83
2022/04/21 07:59:04;;;;;;;6.18;5.68;;;;;;;10.50;67.35;101517.63;5074415;28;20055;-82
2022/04/21 08:01:29;;;;;;;6.40;5.57;;;;;;;10.58;66.84;101522.63;5046738;28;20055;-83
2022/04/21 08:03:55;;;;;;;8.13;5.22;;;;;;;10.64;66.32;101516.34;5072788;28;20040;-83
2022/04/21 08:06:20;;;;;;;8.43;5.25;;;;;;;10.65;65.61;101523.31;5057700;28;20052;-83
2022/04/21 08:08:46;;;;;;;7.85;5.43;;;;;;;10.72;65.94;101523.09;5079364;28;20348;-83
2022/04/21 08:11:12;;;;;;;10.60;5.70;;;;;;;10.77;66.32;101525.59;5076243;28;20055;-83
2022/04/21 08:13:37;;;;;;;5.25;4.75;;;;;;;10.82;65.43;101522.81;5040925;28;20032;-83
2022/04/21 08:16:03;;;;;;;7.25;5.40;;;;;;;10.85;65.30;101525.34;5074538;28;20259;-83
2022/04/21 08:18:28;;;;;;;5.30;4.80;;;;;;;10.90;65.30;101520.81;5070448;28;20032;-83
2022/04/21 08:20:58;;;;;;;6.38;4.82;;;;;;;10.95;65.54;101527.63;5060778;28;20032;-83
2022/04/21 08:23:26;;;;;;;8.77;4.97;;;;;;;11.00;65.03;101526.63;5059731;28;20028;-83
2022/04/21 08:34:05;;;;;;;7.23;4.60;;;;;;;11.16;64.93;101534.84;5062260;28;20307;-83
2022/04/21 08:36:31;;;;;;;5.05;4.57;;;;;;;11.22;64.67;101529.41;5065545;28;20265;-83
2022/04/21 08:38:56;;;;;;;8.48;4.13;;;;;;;11.24;64.92;101528.47;5052245;28;20064;-83
2022/04/21 08:41:26;;;;;;;5.90;4.38;;;;;;;11.30;64.65;101533.50;5071297;28;20039;-83
2022/04/21 08:43:54;;;;;;;4.88;4.40;;;;;;;11.32;64.66;101531.69;5078470;28;20025;-83
2022/04/21 08:46:24;;;;;;;7.65;3.95;;;;;;;11.36;64.19;101527.19;5055330;28;20040;-83
2022/04/21 08:48:51;;;;;;;4.78;4.10;;;;;;;11.44;62.97;101530.44;5069523;28;20058;-83
2022/04/21 08:51:19;;;;;;;8.02;4.50;;;;;;;11.61;62.10;101531.63;5074556;28;20073;-83
2022/04/21 08:53:45;;;;;;;4.65;3.90;;;;;;;11.64;61.18;101521.91;5073286;28;20032;-83
2022/04/21 08:56:11;;;;;;;11.98;3.63;;;;;;;11.72;61.41;101526.88;5074297;28;20047;-83
2022/04/21 08:58:37;;;;;;;5.90;4.32;;;;;;;11.78;60.82;101526.66;5058996;28;20044;-83
2022/04/21 09:01:02;;;;;;;6.30;4.05;;;;;;;11.83;60.87;101521.25;5063594;28;20047;-83
2022/04/21 09:03:29;;;;;;;4.72;4.10;;;;;;;11.89;61.23;101521.88;5070857;28;20048;-83
2022/04/21 09:05:54;;;;;;;5.15;4.72;;;;;;;11.99;61.24;101519.84;5070971;28;20143;-83
2022/04/21 09:08:26;;;;;;;8.20;4.50;;;;;;;11.99;62.34;101522.47;5062121;28;20052;-83
2022/04/21 09:11:07;;;;;;;5.50;3.95;;;;;;;12.02;61.88;101519.69;5054559;28;20272;-83
2022/04/21 09:13:34;;;;;;;4.50;4.10;;;;;;;12.08;61.87;101521.28;5076544;28;20526;-83
2022/04/21 09:16:10;;;;;;;9.88;4.28;;;;;;;12.17;61.50;101525.31;5074791;28;20041;-83
2022/04/21 09:18:40;;;;;;;8.93;4.10;;;;;;;12.22;60.60;101516.34;5069857;28;20103;-83
2022/04/21 09:21:10;;;;;;;5.55;3.75;;;;;;;12.26;60.86;101522.34;5073457;28;20063;-83
2022/04/21 09:23:35;;;;;;;6.00;4.00;;;;;;;12.33;60.03;101515.09;5078599;28;20035;-83
2022/04/21 09:26:12;;;;;;;5.60;3.40;;;;;;;12.35;61.42;101519.41;5060639;28;20256;-83
2022/04/21 09:28:38;;;;;;;5.55;4.10;;;;;;;12.39;60.93;101521.00;5078151;28;20335;-83
2022/04/21 09:31:07;;;;;;;6.75;3.83;;;;;;;12.47;60.65;101518.06;5075780;28;20275;-83
2022/04/21 09:33:35;;;;;;;10.60;4.00;;;;;;;12.54;60.54;101514.31;5073807;28;20043;-83
2022/04/21 09:36:04;;;;;;;30.60;6.15;;;;;;;12.81;62.46;101509.75;5062885;28;20024;-83
2022/04/21 09:38:29;;;;;;;12.88;4.10;;;;;;;12.97;61.51;101506.50;5077596;28;20079;-83
2022/04/21 09:40:55;;;;;;;9.30;3.85;;;;;;;12.99;61.75;101505.53;5071737;28;20029;-83
2022/04/21 09:43:27;;;;;;;7.65;4.25;;;;;;;13.01;60.62;101506.34;5058778;28;20264;-83
2022/04/21 09:46:14;;;;;;;7.40;4.78;;;;;;;13.03;61.37;101498.38;5080157;28;20064;-83
2022/04/21 09:48:39;;;;;;;6.97;4.28;;;;;;;13.05;60.46;101499.19;5086820;28;20028;-83
2022/04/21 09:51:22;;;;;;;4.40;4.00;;;;;;;13.05;59.81;101486.03;5093900;28;20028;-83
2022/04/21 09:53:52;;;;;;;4.10;3.75;;;;;;;13.04;59.49;101492.19;5068794;28;20032;-83
2022/04/21 09:56:18;;;;;;;7.45;4.00;;;;;;;13.07;59.92;101492.91;5073850;28;20549;-83
2022/04/21 09:58:46;;;;;;;5.10;3.97;;;;;;;13.07;59.08;101486.81;5082290;28;20058;-83
2022/04/21 10:01:12;;;;;;;5.90;3.92;;;;;;;13.10;59.19;101491.97;5051269;28;20045;-83
2022/04/21 10:03:41;;;;;;;6.65;4.05;;;;;;;13.10;58.47;101489.34;5050220;28;20539;-83
2022/04/21 10:06:06;;;;;;;5.18;3.63;;;;;;;13.13;59.09;101489.19;5064575;28;20307;-84
2022/04/21 10:08:34;;;;;;;12.15;3.80;;;;;;;13.18;58.95;101481.13;5085190;28;20021;-83
2022/04/21 10:11:00;;;;;;;5.57;3.55;;;;;;;13.15;59.80;101479.47;5081833;28;20039;-84
2022/04/21 10:13:25;;;;;;;5.32;3.50;;;;;;;13.14;59.29;101483.03;5078809;28;20055;-83
2022/04/21 10:15:51;;;;;;;7.57;4.05;;;;;;;13.11;58.84;101467.34;5073075;28;20064;-83
2022/04/21 10:18:18;;;;;;;10.77;4.20;;;;;;;13.08;59.42;101470.13;5059657;28;20052;-83
2022/04/21 10:20:47;;;;;;;3.80;3.50;;;;;;;13.04;59.46;101465.91;5078052;28;20058;-83
2022/04/21 10:23:16;;;;;;;3.97;3.67;;;;;;;13.03;60.29;101467.69;5051781;28;20079;-83
2022/04/21 10:25:45;;;;;;;4.25;3.85;;;;;;;13.02;60.59;101468.63;5055218;28;20032;-83
2022/04/21 10:28:37;;;;;;;3.92;3.30;;;;;;;13.03;58.98;101466.84;5037316;28;20047;-83
2022/04/21 10:31:31;;;;;;;3.92;3.63;;;;;;;13.02;59.70;101465.09;5076871;28;20091;-83
2022/04/21 10:34:05;;;;;;;4.00;3.45;;;;;;;13.02;59.22;101460.72;5047149;28;20055;-83
2022/04/21 10:36:39;;;;;;;4.10;3.70;;;;;;;13.05;58.90;101457.09;5073770;28;20044;-83
2022/04/21 10:39:12;;;;;;;6.07;3.00;;;;;;;13.07;57.81;101453.47;5073939;28;20052;-83
2022/04/21 10:41:38;;;;;;;6.22;3.65;;;;;;;13.10;57.45;101438.50;5067150;28;20249;-83
2022/04/21 10:44:11;;;;;;;7.70;3.85;;;;;;;13.10;57.58;101447.25;5078362;28;20102;-83
2022/04/21 10:46:37;;;;;;;6.20;3.40;;;;;;;13.11;58.06;101438.44;5059596;28;20166;-83
2022/04/21 10:49:02;;;;;;;8.40;3.60;;;;;;;13.13;56.73;101435.75;5056851;28;20397;-84
2022/04/21 10:57:37;;;;;;;2.80;2.60;;;;;;;13.17;54.23;101430.31;5046911;28;20082;-83
2022/04/21 11:00:08;;;;;;;2.80;2.60;;;;;;;13.19;53.87;101427.63;5054232;28;20040;-83
2022/04/21 11:03:05;;;;;;;4.28;2.50;;;;;;;13.24;53.33;101425.63;5074889;28;20036;-84
2022/04/21 11:05:40;;;;;;;2.75;2.55;;;;;;;13.25;53.13;101424.72;5055960;28;20052;-83
2022/04/21 11:08:14;;;;;;;2.00;1.90;;;;;;;13.29;51.75;101423.66;5054245;28;20056;-84
2022/04/21 11:10:42;;;;;;;2.60;2.40;;;;;;;13.36;51.75;101419.88;5071937;28;20040;-83
2022/04/21 11:13:13;;;;;;;5.28;2.67;;;;;;;13.39;52.36;101419.75;5067591;28;20040;-84
2022/04/21 11:15:53;;;;;;;4.43;2.38;;;;;;;13.41;52.14;101420.53;5073010;28;20036;-84
2022/04/21 11:18:20;;;;;;;3.03;2.40;;;;;;;13.48;52.49;101422.88;5068274;28;20037;-83
2022/04/21 11:20:50;;;;;;;5.15;2.20;;;;;;;13.48;52.16;101418.50;5072780;28;20040;-84
2022/04/21 11:23:38;;;;;;;2.95;2.33;;;;;;;13.53;51.45;101420.91;5074785;28;20326;-84
2022/04/21 11:26:05;;;;;;;4.55;2.40;;;;;;;13.54;51.17;101407.69;5041881;28;20048;-83
2022/04/21 11:28:31;;;;;;;2.45;2.28;;;;;;;13.55;52.42;101408.53;5059778;28;20085;-83
2022/04/21 11:31:01;;;;;;;4.10;2.80;;;;;;;13.59;51.81;101410.13;5074194;28;20055;-84
2022/04/21 11:33:27;;;;;;;3.70;2.20;;;;;;;13.62;51.38;101399.47;5056159;28;20332;-83
2022/04/21 11:36:06;;;;;;;2.42;2.10;;;;;;;13.68;50.98;101403.59;5046852;28;20028;-84
2022/04/21 11:38:36;;;;;;;2.13;1.77;;;;;;;13.68;49.64;101412.38;5057430;28;20080;-83
2022/04/21 11:41:07;;;;;;;3.33;2.00;;;;;;;13.71;50.14;101406.09;5051567;28;20029;-84
2022/04/21 11:43:33;;;;;;;1.90;1.70;;;;;;;13.73;49.39;101396.34;5054971;28;20028;-83
2022/04/21 11:46:00;;;;;;;6.82;1.92;;;;;;;13.75;49.53;101397.13;5071567;28;20086;-83
2022/04/21 11:48:34;;;;;;;5.20;1.90;;;;;;;13.75;49.33;101394.50;5055829;28;20039;-84
2022/04/21 11:51:00;;;;;;;2.75;1.70;;;;;;;13.79;50.05;101398.72;5051313;28;20039;-84
2022/04/21 11:53:34;;;;;;;5.22;1.80;;;;;;;13.84;48.70;101386.19;5072051;28;20344;-84
2022/04/21 11:56:01;;;;;;;13.18;2.40;;;;;;;13.90;48.18;101377.13;5052616;28;20037;-84
2022/04/21 11:58:42;;;;;;;4.95;2.22;;;;;;;13.90;48.13;101383.28;5070591;28;20044;-83
2022/04/21 12:06:57;;;;;;;19.08;2.03;;;;;;;13.98;46.94;101375.03;5074269;28;20044;-84
2022/04/21 12:09:25;;;;;;;6.15;1.70;;;;;;;14.01;46.47;101375.72;5031165;28;20036;-84
2022/04/21 12:11:54;;;;;;;2.00;1.80;;;;;;;14.03;47.39;101378.31;5076148;28;20029;-84
2022/04/21 12:14:21;;;;;;;17.40;2.22;;;;;;;14.04;46.88;101373.88;5068789;28;20041;-84
2022/04/21 12:16:53;;;;;;;3.17;1.65;;;;;;;14.06;47.38;101367.63;5076738;28;20351;-84
2022/04/21 12:19:19;;;;;;;2.25;2.03;;;;;;;14.09;46.34;101370.09;5072841;28;20028;-84
2022/04/21 12:22:06;;;;;;;3.70;2.22;;;;;;;14.13;46.24;101368.19;5079909;28;20077;-83